Terminal Aerodrome Forecast
Issued by NWS

Home | Current Version | Previous Version | Text Only | Print | Product List | Glossary On
Versions: 1 2 3 4 5 6 7 8 9 10 11 12 13 14 15
468
FTUS41 KCLE 191734
TAFFDY
TAF
KFDY 191734Z 1918/2018 22015G25KT P6SM FEW250
     FM200600 23012KT P6SM BKN250
     FM201500 22012G20KT P6SM BKN040=

USA.gov is the U.S. government's official web portal to all federal, state and local government web resources and services.